• Join FlightAware (Why Join?)
  • Login
  • US Flag 
03:38PM EST


 

Airport Tracker/Info


-or-


 

Live Flight TrackerFlight Track Log ✈ SWA1435 ✈ 26-Aug-2014 ✈ KSAN - KPHX

Flight Track Log - Related Links

Times and Time Zones

All times are in EDT time to prevent confusion due to time zone crossing. See the SWA1435 flight status page for this flight to view local times or setup timezone preferences in your user account.

Time Position Orientation Groundspeed Altitude Reporting Facility
EDT Latitude Longitude Course Direction KTS MPH feet Rate Location/Type
06:08PM 32.7372 -117.3247 265° West 257 296 4,100  Level Los Angeles Center
06:09PM 32.6778 -117.2886 153° Southeast 286 329 6,600 2,516 Climbing Los Angeles Center
06:10PM 32.6553 -117.1950 106° East 289 333 9,300 1,887 Climbing Los Angeles Center
06:11PM 32.6339 -117.0964 104° East 307 353 10,500 1,403 Climbing Los Angeles Center
06:12PM 32.6125 -116.9764 102° East 362 417 12,200 1,920 Climbing Los Angeles Center
06:13PM 32.8440 -116.4732 73° East  Level Estimated
06:13PM 32.6250 -116.8269 84° East 377 434 14,500  Level Los Angeles Center
06:14PM 32.6381 -116.6989 83° East 386 444 16,300 1,597 Climbing Los Angeles Center
06:15PM 32.6503 -116.5692 84° East 394 453 17,800 1,355 Climbing Los Angeles Center
06:17PM 32.6628 -116.4331 84° East 418 481 19,100 1,306 Climbing Los Angeles Center
06:18PM 32.6761 -116.2953 83° East 423 487 20,500 1,355 Climbing Los Angeles Center
06:19PM 32.6919 -116.1261 84° East 432 497 21,900 1,161 Climbing Los Angeles Center
06:20PM 32.7061 -115.9825 83° East 440 506 22,900 919 Climbing Los Angeles Center
06:21PM 32.7194 -115.8336 84° East 453 521 23,800 919 Climbing Los Angeles Center
06:22PM 32.7331 -115.6828 84° East 457 526 24,800 871 Climbing Los Angeles Center
06:23PM 32.7472 -115.5300 84° East 466 536 25,600 1,056 Climbing Los Angeles Center
06:24PM 32.7536 -115.3431 88° East 472 543 27,000 672 Climbing Los Angeles Center
06:25PM 32.7606 -115.1878 87° East 473 544 27,000  Level Los Angeles Center
06:26PM 32.7644 -115.0311 88° East 473 544 27,000  Level Los Angeles Center
06:27PM 32.7633 -114.8725 90° East 478 550 27,000  Level Los Angeles Center
06:28PM 32.7706 -114.7136 87° East 480 552 27,000  Level Los Angeles Center
06:29PM 32.7728 -114.5219 89° East 484 557 27,000  Level Los Angeles Center
06:30PM 32.7728 -114.3606 90° East 488 562 27,000  Level Los Angeles Center
06:31PM 32.7758 -114.1994 89° East 489 563 27,000 -581 Level Los Angeles Center
06:32PM 32.7764 -114.0392 90° East 488 562 25,800 -968 Descending Los Angeles Center
06:33PM 32.7894 -113.8858 84° East 470 541 25,000 -387 Descending Los Angeles Center
06:34PM 32.8156 -113.7111 80° East 453 521 25,000  Level Los Angeles Center
06:35PM 32.8883 -113.5911 54° Northeast 453 521 25,000 -288 Level Los Angeles Center
06:36PM 32.9736 -113.4794 48° Northeast 457 526 24,400 -1,452 Descending Los Angeles Center
06:37PM 33.0536 -113.3697 49° Northeast 455 524 22,000 -1,742 Descending Los Angeles Center
06:38PM 33.1333 -113.2606 49° Northeast 435 501 20,800 -1,694 Descending Los Angeles Center
06:39PM 33.2086 -113.1569 49° Northeast 422 486 18,500 -1,935 Descending Los Angeles Center
06:40PM 33.2744 -113.0267 59° Northeast 391 450 16,800 -718 Descending Los Angeles Center
06:41PM 33.2833 -112.9167 84° East 352 405 17,100 -433 Climbing Phoenix TRACON
06:42PM 33.2833 -112.8333 90° East 348 400 16,100 -750 Descending Phoenix TRACON
06:43PM 33.2817 -112.7736 92° East 345 397 16,000 -111 Descending Albuquerque Center
06:44PM 33.2822 -112.6650 90° East 333 383 15,900 -1,073 Descending Albuquerque Center
06:45PM 33.2875 -112.5394 87° East 333 383 13,800 -1,854 Descending Albuquerque Center
06:46PM 33.2900 -112.4311 88° East 331 381 12,100 -1,355 Descending Albuquerque Center
06:47PM 33.2939 -112.3264 87° East 320 368 11,000 -878 Descending Albuquerque Center
06:48PM 33.3011 -112.2281 85° East 303 349 10,300 -927 Descending Albuquerque Center
06:49PM 33.3081 -112.1242 85° East 266 306 9,100 -976 Descending Albuquerque Center
06:50PM 33.3236 -112.0450 77° East 245 282 8,300 -976 Descending Albuquerque Center
06:51PM 33.3439 -111.9650 73° East 248 285 7,100 -1,171 Descending Albuquerque Center
06:52PM 33.3461 -111.8856 88° East 242 278 5,900 -1,366 Descending Albuquerque Center
06:53PM 33.3836 -111.8328 50° Northeast 247 284 4,300 -1,355 Descending Albuquerque Center
06:54PM 33.4292 -111.8711 325° Northwest 229 264 3,100 -1,000 Descending Albuquerque Center
06:55PM 33.4333 -111.9500 274° West 191 220 2,300 -828 Descending Phoenix TRACON